Time;durP1;ratioP1;P1;durP2;ratioP2;P2;SDS_P1;SDS_P2;PMS_P1;PMS_P2;Temp;Humidity;BMP_temperature;BMP_pressure;BME280_temperature;BME280_humidity;BME280_pressure;Samples;Min_cycle;Max_cycle;Signal;HPM_P1;HPM_P2
2020/12/11 00:02:47;;;;;;;147.65;65.07;;;;;;;;;;5053651;28;20032;-64
2020/12/11 00:08:48;;;;;;;144.95;66.53;;;;;;;;;;5053358;28;20028;-65
2020/12/11 00:18:38;;;;;;;163.57;61.03;;;;;;;;;;5053474;28;20099;-64
2020/12/11 00:24:39;;;;;;;145.77;54.97;;;;;;;;;;5053311;28;20519;-65
2020/12/11 00:34:02;;;;;;;145.13;53.60;;;;;;;;;;5057157;28;20044;-65
2020/12/11 00:40:03;;;;;;;101.35;44.30;;;;;;;;;;5057082;28;20105;-64
2020/12/11 00:46:05;;;;;;;97.80;43.28;;;;;;;;;;5056634;28;20171;-64
2020/12/11 00:52:05;;;;;;;107.38;44.30;;;;;;;;;;5056852;28;20442;-64
2020/12/11 00:58:11;;;;;;;96.38;41.33;;;;;;;;;;5056532;28;20095;-66
2020/12/11 01:04:11;;;;;;;84.13;39.25;;;;;;;;;;5056571;28;20066;-66
2020/12/11 01:10:12;;;;;;;84.78;40.10;;;;;;;;;;5056715;28;20079;-65
2020/12/11 01:16:12;;;;;;;76.65;36.03;;;;;;;;;;5056408;28;20514;-64
2020/12/11 01:22:12;;;;;;;69.60;34.60;;;;;;;;;;5056302;28;20032;-66
2020/12/11 01:28:13;;;;;;;71.32;33.55;;;;;;;;;;5056189;28;20023;-65
2020/12/11 01:37:33;;;;;;;69.07;33.08;;;;;;;;;;5056006;28;20492;-65
2020/12/11 01:43:34;;;;;;;64.90;31.85;;;;;;;;;;5055923;28;20052;-64
2020/12/11 01:49:35;;;;;;;68.47;34.05;;;;;;;;;;5055776;28;20115;-64
2020/12/11 01:55:36;;;;;;;78.35;36.00;;;;;;;;;;5055685;28;20555;-64
2020/12/11 02:01:37;;;;;;;72.70;33.80;;;;;;;;;;5055570;28;20027;-63
2020/12/11 02:07:38;;;;;;;71.93;32.63;;;;;;;;;;5055445;28;20453;-64
2020/12/11 02:13:41;;;;;;;66.55;32.88;;;;;;;;;;5055396;28;20067;-64
2020/12/11 16:28:57;;;;;;;;;;;;;;;;;;5086139;28;20059;-61
2020/12/11 16:31:23;;;;;;;35.80;21.60;;;;;;;;;;5086726;28;19907;-61
2020/12/11 16:33:48;;;;;;;32.28;19.75;;;;;;;;;;5084740;28;20041;-61
2020/12/11 16:36:14;;;;;;;35.30;22.05;;;;;;;;;;5078168;28;20494;-61
2020/12/11 16:38:40;;;;;;;28.77;17.52;;;;;;;;;;5068635;28;20111;-61
2020/12/11 16:41:06;;;;;;;24.42;17.48;;;;;;;;;;5068498;28;20040;-62
2020/12/11 16:44:00;;;;;;;28.83;19.00;;;;;;;;;;5082716;28;20044;-62
2020/12/11 16:46:19;;;;;;;24.00;16.75;;;;;;;;;;5081638;28;20139;-62
2020/12/11 16:48:49;;;;;;;31.92;21.33;;;;;;;;;;5088779;28;20073;-66
2020/12/11 16:51:15;;;;;;;31.50;21.45;;;;;;;;;;5077929;28;20044;-64
2020/12/11 16:53:42;;;;;;;39.83;28.08;;;;;;;;;;5090804;28;20082;-63
2020/12/11 16:56:15;;;;;;;38.28;27.48;;;;;;;;;;5095837;28;20128;-63
2020/12/11 16:58:41;;;;;;;31.58;21.15;;;;;;;;;;5095317;28;20467;-63
2020/12/11 17:01:07;;;;;;;35.20;22.35;;;;;;;;;;5095447;28;20032;-65
2020/12/11 17:03:48;;;;;;;28.52;20.02;;;;;;;;;;5095772;28;20076;-63
2020/12/11 17:06:50;;;;;;;;;;;;;;;;;;5094223;28;20042;-64
2020/12/11 17:09:14;;;;;;;29.10;18.38;;;;;;;;;;5090842;28;19947;-66
2020/12/11 17:11:41;;;;;;;31.55;21.63;;;;;;;;;;5073548;28;20567;-64
2020/12/11 17:14:10;;;;;;;39.38;27.73;;;;;;;;;;5075022;28;20107;-64
2020/12/11 17:16:35;;;;;;;37.58;23.00;;;;;;;;;;5087676;28;20040;-64
2020/12/11 17:19:01;;;;;;;34.03;21.50;;;;;;;;;;5095519;28;20036;-64
2020/12/11 17:21:32;;;;;;;32.08;22.13;;;;;;;;;;5095690;28;20032;-64
2020/12/11 17:23:58;;;;;;;47.42;25.38;;;;;;;;;;5082816;28;20082;-64
2020/12/11 17:26:26;;;;;;;29.58;20.05;;;;;;;;;;5056752;28;20041;-64
2020/12/11 17:28:55;;;;;;;27.38;20.05;;;;;;;;;;5074826;28;20090;-64
2020/12/11 17:34:25;;;;;;;25.65;18.15;;;;;;;;;;5018422;28;20037;-64
2020/12/11 17:36:51;;;;;;;21.13;16.10;;;;;;;;;;5077352;28;20135;-64
2020/12/11 17:39:17;;;;;;;22.35;16.08;;;;;;;;;;5085993;28;20124;-63
2020/12/11 17:41:50;;;;;;;27.52;17.65;;;;;;;;;;5078311;28;20498;-52
2020/12/11 17:44:20;;;;;;;30.83;18.65;;;;;;;;;;5074805;28;20047;-64
2020/12/11 17:46:46;;;;;;;28.73;18.35;;;;;;;;;;5087317;28;20040;-64
2020/12/11 17:49:12;;;;;;;23.48;16.08;;;;;;;;;;5087561;28;20039;-64
2020/12/11 17:51:38;;;;;;;24.70;17.77;;;;;;;;;;5089329;28;20386;-64
2020/12/11 17:54:04;;;;;;;31.05;20.17;;;;;;;;;;5056241;28;20044;-64
2020/12/11 17:56:30;;;;;;;28.35;19.42;;;;;;;;;;5074657;28;20032;-64
2020/12/11 17:58:56;;;;;;;23.38;15.25;;;;;;;;;;5074547;28;20033;-64
2020/12/11 18:01:22;;;;;;;26.77;18.40;;;;;;;;;;5074417;28;20052;-64
2020/12/11 18:03:49;;;;;;;26.27;16.77;;;;;;;;;;5074266;28;20041;-64
2020/12/11 18:06:14;;;;;;;27.63;18.63;;;;;;;;;;5074126;28;20040;-64
2020/12/11 18:08:40;;;;;;;23.48;16.30;;;;;;;;;;5074403;28;20391;-64
2020/12/11 18:11:05;;;;;;;29.15;18.25;;;;;;;;;;5074441;28;20385;-64
2020/12/11 18:13:31;;;;;;;26.40;17.98;;;;;;;;;;5073606;28;20024;-64
2020/12/11 18:15:57;;;;;;;31.67;19.33;;;;;;;;;;5074169;28;20039;-64
2020/12/11 18:18:23;;;;;;;67.13;31.63;;;;;;;;;;5074128;28;20040;-64
2020/12/11 18:20:51;;;;;;;48.92;24.85;;;;;;;;;;5074538;28;20486;-63
2020/12/11 18:23:18;;;;;;;43.60;27.58;;;;;;;;;;5089057;28;20090;-63
2020/12/11 18:25:45;;;;;;;46.60;29.20;;;;;;;;;;5077753;28;20047;-63
2020/12/11 18:28:12;;;;;;;45.42;30.73;;;;;;;;;;5058206;28;20048;-62
2020/12/11 18:30:39;;;;;;;33.50;20.48;;;;;;;;;;5074026;28;20028;-63
2020/12/11 18:33:06;;;;;;;45.20;27.25;;;;;;;;;;5057026;28;20029;-64
2020/12/11 18:35:40;;;;;;;50.70;30.35;;;;;;;;;;5053629;28;20041;-65
2020/12/11 18:38:13;;;;;;;51.05;30.75;;;;;;;;;;5053644;28;20045;-64
2020/12/11 18:40:38;;;;;;;34.35;22.85;;;;;;;;;;5053832;28;20036;-64
2020/12/11 18:43:03;;;;;;;68.18;42.13;;;;;;;;;;5059934;28;20041;-64
2020/12/11 18:45:29;;;;;;;46.47;27.58;;;;;;;;;;5061500;28;20068;-64
2020/12/11 18:47:57;;;;;;;47.92;27.42;;;;;;;;;;5058796;28;20048;-65
2020/12/11 18:50:26;;;;;;;49.03;29.67;;;;;;;;;;5060292;28;20036;-64
2020/12/11 18:52:52;;;;;;;69.43;39.97;;;;;;;;;;5068712;28;20029;-64
2020/12/11 18:55:23;;;;;;;44.15;32.22;;;;;;;;;;5057195;28;20033;-67
2020/12/11 18:57:49;;;;;;;68.95;53.97;;;;;;;;;;5060466;28;20041;-66
2020/12/11 19:00:15;;;;;;;44.42;31.30;;;;;;;;;;5069925;28;20017;-67
2020/12/11 19:02:41;;;;;;;43.25;30.05;;;;;;;;;;5057427;28;20040;-66
2020/12/11 19:05:07;;;;;;;38.83;28.13;;;;;;;;;;5053073;28;20082;-67
2020/12/11 19:07:33;;;;;;;40.00;27.92;;;;;;;;;;5051900;28;20024;-67
2020/12/11 19:09:58;;;;;;;46.65;27.60;;;;;;;;;;5053631;28;20371;-67
2020/12/11 19:12:26;;;;;;;40.80;25.42;;;;;;;;;;5053372;28;20098;-67
2020/12/11 19:14:54;;;;;;;39.10;23.95;;;;;;;;;;5053167;28;20028;-67
2020/12/11 19:17:20;;;;;;;45.55;26.38;;;;;;;;;;5052945;28;20108;-67
2020/12/11 19:19:46;;;;;;;34.50;21.38;;;;;;;;;;5053715;28;20500;-67
2020/12/11 19:22:13;;;;;;;31.30;21.92;;;;;;;;;;5070063;28;20471;-67
2020/12/11 19:24:38;;;;;;;56.25;32.60;;;;;;;;;;5060803;28;20040;-67
2020/12/11 19:27:04;;;;;;;47.00;26.58;;;;;;;;;;5060078;28;20037;-67
2020/12/11 19:29:31;;;;;;;51.08;27.35;;;;;;;;;;5083501;28;20100;-71
2020/12/11 19:31:56;;;;;;;48.85;27.55;;;;;;;;;;5085584;28;20112;-67
2020/12/11 19:34:23;;;;;;;36.20;24.05;;;;;;;;;;5080259;28;20123;-67
2020/12/11 19:36:48;;;;;;;34.67;20.90;;;;;;;;;;5081410;28;20068;-67
2020/12/11 19:39:19;;;;;;;35.38;22.95;;;;;;;;;;5072799;28;20099;-67
2020/12/11 19:41:48;;;;;;;40.13;23.92;;;;;;;;;;5056984;28;20033;-67
2020/12/11 19:44:13;;;;;;;65.88;35.40;;;;;;;;;;5082412;28;20028;-67
2020/12/11 19:46:39;;;;;;;40.25;23.67;;;;;;;;;;5072805;28;20044;-67
2020/12/11 19:49:06;;;;;;;53.20;36.65;;;;;;;;;;5072871;28;20146;-68
2020/12/11 19:51:33;;;;;;;38.38;24.52;;;;;;;;;;5038099;28;20036;-67
2020/12/11 19:53:59;;;;;;;43.47;28.05;;;;;;;;;;5072594;28;20024;-68
2020/12/11 19:56:25;;;;;;;34.13;21.35;;;;;;;;;;5072704;28;20044;-68
2020/12/11 19:58:51;;;;;;;36.13;22.45;;;;;;;;;;5054857;28;20032;-68
2020/12/11 20:01:17;;;;;;;37.70;25.52;;;;;;;;;;5072938;28;20036;-68
2020/12/11 20:03:42;;;;;;;32.17;21.15;;;;;;;;;;5072493;28;20037;-67
2020/12/11 20:06:13;;;;;;;33.65;22.77;;;;;;;;;;5072668;28;20045;-66
2020/12/11 20:11:23;;;;;;;33.85;20.98;;;;;;;;;;5074899;28;20032;-66
2020/12/11 20:13:49;;;;;;;34.00;21.08;;;;;;;;;;5074059;28;20813;-66
2020/12/11 20:16:14;;;;;;;34.60;21.45;;;;;;;;;;5092871;28;20036;-66
2020/12/11 20:18:40;;;;;;;36.63;21.90;;;;;;;;;;5092869;28;20037;-66
2020/12/11 20:21:05;;;;;;;40.08;26.48;;;;;;;;;;5092565;28;20448;-66
2020/12/11 20:23:31;;;;;;;41.58;23.88;;;;;;;;;;5092623;28;20044;-66
2020/12/11 20:25:57;;;;;;;35.10;22.27;;;;;;;;;;5092393;28;20044;-66
2020/12/11 20:28:23;;;;;;;45.40;28.38;;;;;;;;;;5092428;28;20051;-66
2020/12/11 20:30:48;;;;;;;63.47;34.17;;;;;;;;;;5092527;28;20028;-66
2020/12/11 20:33:16;;;;;;;38.30;22.02;;;;;;;;;;5092681;28;20028;-66
2020/12/11 20:35:43;;;;;;;49.55;26.65;;;;;;;;;;5092196;28;20139;-66
2020/12/11 20:38:08;;;;;;;50.60;26.90;;;;;;;;;;5074409;28;20077;-66
2020/12/11 20:40:34;;;;;;;39.20;21.45;;;;;;;;;;5092581;28;20040;-66
2020/12/11 20:43:00;;;;;;;45.72;24.90;;;;;;;;;;5092279;28;20489;-66
2020/12/11 20:45:26;;;;;;;32.67;19.40;;;;;;;;;;5094610;28;20046;-66
2020/12/11 20:47:51;;;;;;;43.95;23.80;;;;;;;;;;5096283;28;20111;-66
2020/12/11 20:50:28;;;;;;;55.60;26.83;;;;;;;;;;5096251;28;20016;-66
2020/12/11 20:52:57;;;;;;;56.17;32.45;;;;;;;;;;5096090;28;20025;-66
2020/12/11 20:55:23;;;;;;;57.95;28.98;;;;;;;;;;5096274;28;20036;-67
2020/12/11 20:57:50;;;;;;;52.03;27.88;;;;;;;;;;5096021;28;20081;-67
2020/12/11 21:00:17;;;;;;;35.92;22.60;;;;;;;;;;5096124;28;20036;-67
2020/12/11 21:02:42;;;;;;;36.80;22.05;;;;;;;;;;5077932;28;20051;-67
2020/12/11 21:05:08;;;;;;;33.25;22.48;;;;;;;;;;5095781;28;20023;-65
2020/12/11 21:07:34;;;;;;;29.08;18.08;;;;;;;;;;5095516;28;20501;-65
2020/12/11 21:10:02;;;;;;;32.05;20.20;;;;;;;;;;5096023;28;20119;-65
2020/12/11 21:12:28;;;;;;;30.02;19.33;;;;;;;;;;5095584;28;20394;-65
2020/12/11 21:14:53;;;;;;;27.63;18.02;;;;;;;;;;5077657;28;20035;-65
2020/12/11 21:17:19;;;;;;;32.33;18.65;;;;;;;;;;5095920;28;20121;-66
2020/12/11 21:19:45;;;;;;;33.53;19.58;;;;;;;;;;5095624;28;20090;-65
2020/12/11 21:22:11;;;;;;;63.05;25.02;;;;;;;;;;5095647;28;20035;-66
2020/12/11 21:24:37;;;;;;;44.25;21.48;;;;;;;;;;5095691;28;20387;-67
2020/12/11 21:27:02;;;;;;;37.90;20.92;;;;;;;;;;5095182;28;20036;-66
2020/12/11 21:29:29;;;;;;;34.72;19.83;;;;;;;;;;5095596;28;20047;-66
2020/12/11 21:31:57;;;;;;;26.52;17.50;;;;;;;;;;5095374;28;20032;-66
2020/12/11 21:37:06;;;;;;;46.13;20.40;;;;;;;;;;5095525;28;20176;-66
2020/12/11 21:39:35;;;;;;;29.42;17.80;;;;;;;;;;5078241;28;20440;-66
2020/12/11 21:42:01;;;;;;;28.67;18.67;;;;;;;;;;5095750;28;20040;-66
2020/12/11 21:44:27;;;;;;;30.08;18.58;;;;;;;;;;5095574;28;20394;-66
2020/12/11 21:46:54;;;;;;;30.75;19.73;;;;;;;;;;5095692;28;20049;-66
2020/12/11 21:49:20;;;;;;;31.63;18.73;;;;;;;;;;5095596;28;20528;-66
2020/12/11 21:51:46;;;;;;;41.28;20.60;;;;;;;;;;5095532;28;20059;-66
2020/12/11 21:54:12;;;;;;;29.65;19.17;;;;;;;;;;5095463;28;20042;-66
2020/12/11 21:56:38;;;;;;;30.27;17.90;;;;;;;;;;5095079;28;20032;-66
2020/12/11 21:59:03;;;;;;;46.30;21.00;;;;;;;;;;5095428;28;20036;-66
2020/12/11 22:01:29;;;;;;;32.95;18.13;;;;;;;;;;5077245;28;20034;-66
2020/12/11 22:03:55;;;;;;;31.67;18.63;;;;;;;;;;5095578;28;20071;-66
2020/12/11 22:06:20;;;;;;;31.45;20.58;;;;;;;;;;5095145;28;20478;-66
2020/12/11 22:08:46;;;;;;;26.15;16.85;;;;;;;;;;5095294;28;20028;-67
2020/12/11 22:11:14;;;;;;;26.80;17.45;;;;;;;;;;5095039;28;20023;-66
2020/12/11 22:13:40;;;;;;;28.95;18.67;;;;;;;;;;5095025;28;20398;-67
2020/12/11 22:16:05;;;;;;;26.90;17.77;;;;;;;;;;5095075;28;20035;-67
2020/12/11 22:18:32;;;;;;;26.42;17.80;;;;;;;;;;5094989;28;20036;-67
2020/12/11 22:20:58;;;;;;;26.60;17.50;;;;;;;;;;5094986;28;20057;-68
2020/12/11 22:23:28;;;;;;;24.77;16.40;;;;;;;;;;5094958;28;20037;-67
2020/12/11 22:25:54;;;;;;;;;;;;;;;;;;5095336;28;20032;-67
2020/12/11 22:28:19;;;;;;;26.00;16.27;;;;;;;;;;5094422;28;19916;-67
2020/12/11 22:30:46;;;;;;;25.88;16.35;;;;;;;;;;5094792;28;20102;-67
2020/12/11 22:33:11;;;;;;;30.85;17.67;;;;;;;;;;5094611;28;20059;-67
2020/12/11 22:35:38;;;;;;;27.35;16.63;;;;;;;;;;5094628;28;20042;-67
2020/12/11 22:38:03;;;;;;;25.10;16.55;;;;;;;;;;5094668;28;20063;-67
2020/12/11 22:40:29;;;;;;;30.40;19.10;;;;;;;;;;5094496;28;20047;-66
2020/12/11 22:42:56;;;;;;;23.48;15.40;;;;;;;;;;5094299;28;20067;-66
2020/12/11 22:45:21;;;;;;;25.85;18.02;;;;;;;;;;5094505;28;20020;-66
2020/12/11 22:47:47;;;;;;;23.85;15.45;;;;;;;;;;5094455;28;20040;-66
2020/12/11 22:50:13;;;;;;;33.90;18.08;;;;;;;;;;5094352;28;20071;-66
2020/12/11 22:52:38;;;;;;;32.60;18.80;;;;;;;;;;5094375;28;20020;-67
2020/12/11 22:55:04;;;;;;;37.95;20.23;;;;;;;;;;5094280;28;20093;-66
2020/12/11 22:57:30;;;;;;;38.35;20.65;;;;;;;;;;5094169;28;20028;-66
2020/12/11 22:59:55;;;;;;;40.45;21.10;;;;;;;;;;5075899;28;20032;-66
2020/12/11 23:02:21;;;;;;;53.95;25.92;;;;;;;;;;5075897;28;20023;-66
2020/12/11 23:04:50;;;;;;;55.63;26.50;;;;;;;;;;5093960;28;20402;-66
2020/12/11 23:07:16;;;;;;;50.65;24.25;;;;;;;;;;5093320;28;20036;-66
2020/12/11 23:09:42;;;;;;;50.40;23.80;;;;;;;;;;5093973;28;20024;-66
2020/12/11 23:12:07;;;;;;;23.15;15.50;;;;;;;;;;5094070;28;20047;-67
2020/12/11 23:14:33;;;;;;;32.58;18.60;;;;;;;;;;5075794;28;20036;-66
2020/12/11 23:16:58;;;;;;;44.00;20.48;;;;;;;;;;5075961;28;20067;-66
2020/12/11 23:19:24;;;;;;;31.48;18.20;;;;;;;;;;5093798;28;20552;-66
2020/12/11 23:21:51;;;;;;;32.10;18.27;;;;;;;;;;5093963;28;20460;-66
2020/12/11 23:24:18;;;;;;;35.70;20.58;;;;;;;;;;5093784;28;20093;-66
2020/12/11 23:26:50;;;;;;;24.45;16.80;;;;;;;;;;5093620;28;20374;-66
2020/12/11 23:29:16;;;;;;;24.05;14.80;;;;;;;;;;5075370;28;20398;-66
2020/12/11 23:31:43;;;;;;;27.35;18.40;;;;;;;;;;5093728;28;20058;-66
2020/12/11 23:34:10;;;;;;;26.73;16.70;;;;;;;;;;5093858;28;20516;-67
2020/12/11 23:36:38;;;;;;;28.73;17.63;;;;;;;;;;5093782;28;20042;-66
2020/12/11 23:39:04;;;;;;;35.50;19.48;;;;;;;;;;5093752;28;20034;-67
2020/12/11 23:41:30;;;;;;;35.97;19.40;;;;;;;;;;5075691;28;20107;-67
2020/12/11 23:43:55;;;;;;;32.55;17.50;;;;;;;;;;5075866;28;20050;-66
2020/12/11 23:46:21;;;;;;;27.95;16.85;;;;;;;;;;5093580;28;20070;-67
2020/12/11 23:48:47;;;;;;;31.20;18.38;;;;;;;;;;5075378;28;20028;-67
2020/12/11 23:51:12;;;;;;;24.15;15.55;;;;;;;;;;5093484;28;20085;-67
2020/12/11 23:53:39;;;;;;;25.65;16.00;;;;;;;;;;5093560;28;20069;-67
2020/12/11 23:56:04;;;;;;;30.15;17.02;;;;;;;;;;5093577;28;20131;-67
2020/12/11 23:58:31;;;;;;;25.95;16.42;;;;;;;;;;5093379;28;20496;-67
